createdAt,value
2018-06-24T00:02:12.291Z,75.42
2018-06-24T00:04:40.969Z,74.88
2018-06-24T00:07:10.045Z,76.37
2018-06-24T00:09:38.639Z,76.21
2018-06-24T00:12:07.340Z,75.71
2018-06-24T00:14:35.852Z,76.18
2018-06-24T00:17:04.403Z,76.40
2018-06-24T00:19:33.091Z,77.31
2018-06-24T00:22:01.606Z,78.78
2018-06-24T00:24:30.145Z,77.68
2018-06-24T00:26:58.728Z,79.56
2018-06-24T00:29:27.364Z,78.63
2018-06-24T00:31:55.903Z,78.29
2018-06-24T00:34:24.523Z,77.82
2018-06-24T00:36:53.088Z,77.08
2018-06-24T00:39:21.587Z,77.88
2018-06-24T00:41:50.152Z,78.03
2018-06-24T00:44:18.678Z,79.01
2018-06-24T00:46:47.350Z,78.75
2018-06-24T00:49:16.024Z,78.00
2018-06-24T00:51:44.550Z,77.85
2018-06-24T00:54:13.095Z,77.90
2018-06-24T00:56:41.666Z,77.24
2018-06-24T00:59:20.139Z,76.99
2018-06-24T01:01:48.659Z,77.01
2018-06-24T01:04:17.199Z,78.14
2018-06-24T01:06:45.787Z,79.21
2018-06-24T01:09:14.306Z,78.33
2018-06-24T01:11:42.839Z,77.92
2018-06-24T01:14:11.431Z,77.82
2018-06-24T01:16:39.980Z,78.20
2018-06-24T01:19:08.527Z,77.96
2018-06-24T01:21:37.111Z,78.26
2018-06-24T01:24:05.631Z,77.14
2018-06-24T01:26:34.147Z,77.56
2018-06-24T01:29:02.735Z,77.79
2018-06-24T01:31:31.411Z,77.75
2018-06-24T01:34:00.035Z,77.54
2018-06-24T01:36:28.718Z,77.71
2018-06-24T01:38:57.301Z,78.18
2018-06-24T01:41:25.828Z,80.07
2018-06-24T01:43:54.572Z,78.55
2018-06-24T01:46:23.103Z,80.42
2018-06-24T01:48:51.640Z,79.58
2018-06-24T01:51:20.199Z,78.98
2018-06-24T01:53:48.743Z,80.08
2018-06-24T01:56:17.485Z,79.14
2018-06-24T01:58:46.035Z,79.01
2018-06-24T02:01:14.664Z,78.63
2018-06-24T02:03:43.238Z,78.74
2018-06-24T02:06:11.764Z,79.17
2018-06-24T02:08:40.399Z,79.09
2018-06-24T02:11:09.040Z,78.59
2018-06-24T02:13:37.564Z,78.50
2018-06-24T02:16:06.433Z,78.58
2018-06-24T02:18:35.038Z,79.69
2018-06-24T02:21:03.621Z,80.11
2018-06-24T02:23:32.187Z,80.63
2018-06-24T02:26:00.726Z,80.36
2018-06-24T02:28:29.259Z,80.04
2018-06-24T02:30:57.767Z,82.13
2018-06-24T02:33:26.434Z,82.78
2018-06-24T02:35:55.021Z,83.15
2018-06-24T02:38:23.598Z,82.41
2018-06-24T02:40:52.184Z,81.96
2018-06-24T02:43:20.869Z,81.54
2018-06-24T02:45:49.509Z,81.19
2018-06-24T02:48:18.037Z,80.63
2018-06-24T02:50:46.562Z,80.05
2018-06-24T02:53:15.099Z,80.29
2018-06-24T02:55:43.639Z,81.33
2018-06-24T02:58:12.330Z,81.48
2018-06-24T03:00:40.832Z,81.45
2018-06-24T03:03:09.427Z,81.62
2018-06-24T03:05:38.010Z,81.41
2018-06-24T03:08:06.594Z,80.42
2018-06-24T03:10:35.144Z,80.77
2018-06-24T03:13:03.962Z,80.78
2018-06-24T03:15:32.641Z,82.52
2018-06-24T03:18:01.232Z,81.65
2018-06-24T03:20:29.768Z,81.54
2018-06-24T03:22:58.395Z,81.56
2018-06-24T03:25:26.917Z,81.12
2018-06-24T03:27:55.666Z,81.71
2018-06-24T03:30:24.295Z,82.73
2018-06-24T03:32:52.880Z,83.11
2018-06-24T03:35:21.515Z,83.27
2018-06-24T03:37:50.117Z,82.67
2018-06-24T03:40:18.758Z,83.68
2018-06-24T03:42:47.366Z,86.24
2018-06-24T03:45:15.949Z,87.70
2018-06-24T03:47:44.505Z,85.03
2018-06-24T03:50:13.080Z,84.65
2018-06-24T03:52:41.697Z,85.16
2018-06-24T03:55:10.219Z,84.64
2018-06-24T03:57:38.767Z,84.60
2018-06-24T04:00:07.899Z,84.13
2018-06-24T04:02:36.444Z,84.26
2018-06-24T04:05:05.227Z,83.92
2018-06-24T04:07:33.877Z,84.54
2018-06-24T04:10:02.498Z,84.75
2018-06-24T04:12:31.077Z,84.23
2018-06-24T04:14:59.660Z,86.33
2018-06-24T04:17:28.227Z,84.29
2018-06-24T04:19:56.930Z,84.85
2018-06-24T04:22:25.511Z,83.55
2018-06-24T04:24:54.094Z,83.74
2018-06-24T04:27:22.678Z,83.08
2018-06-24T04:29:51.260Z,82.52
2018-06-24T04:32:19.779Z,81.67
2018-06-24T04:34:48.324Z,81.66
2018-06-24T04:37:16.981Z,80.69
2018-06-24T04:39:45.593Z,80.65
2018-06-24T04:42:14.276Z,80.23
2018-06-24T04:44:42.963Z,79.34
2018-06-24T04:47:11.488Z,79.67
2018-06-24T04:49:40.005Z,79.14
2018-06-24T04:52:08.519Z,78.85
2018-06-24T04:54:37.028Z,78.62
2018-06-24T04:57:06.159Z,77.85
2018-06-24T04:59:34.709Z,77.70
2018-06-24T05:02:03.297Z,77.00
2018-06-24T05:04:31.916Z,76.59
2018-06-24T05:07:00.516Z,75.84
2018-06-24T05:09:29.062Z,76.06
2018-06-24T05:11:57.790Z,76.28
2018-06-24T05:14:26.371Z,75.51
2018-06-24T05:16:54.968Z,75.12
2018-06-24T05:19:23.640Z,74.56
2018-06-24T05:21:52.222Z,75.24
2018-06-24T05:24:20.852Z,75.10
2018-06-24T05:26:49.407Z,74.30
2018-06-24T05:29:18.033Z,73.83
2018-06-24T05:31:46.655Z,74.24
2018-06-24T05:34:15.239Z,73.59
2018-06-24T05:36:43.823Z,73.56
2018-06-24T05:39:13.288Z,73.64
2018-06-24T05:41:42.280Z,73.57
2018-06-24T05:44:11.088Z,73.23
2018-06-24T05:46:39.791Z,73.25
2018-06-24T05:49:08.476Z,74.07
2018-06-24T05:51:37.155Z,73.21
2018-06-24T05:54:05.817Z,73.22
2018-06-24T05:56:34.555Z,73.13
2018-06-24T05:59:03.175Z,72.09
2018-06-24T06:01:31.899Z,72.29
2018-06-24T06:04:00.584Z,72.60
2018-06-24T06:06:29.275Z,71.67
2018-06-24T06:08:57.942Z,71.75
2018-06-24T06:11:26.557Z,71.58
2018-06-24T06:13:55.174Z,71.46
2018-06-24T06:16:23.766Z,70.41
2018-06-24T06:18:52.489Z,70.04
2018-06-24T06:21:21.177Z,69.79
2018-06-24T06:23:49.829Z,69.58
2018-06-24T06:26:18.444Z,69.34
2018-06-24T06:28:47.123Z,69.04
2018-06-24T06:31:15.780Z,68.38
2018-06-24T06:33:44.386Z,68.31
2018-06-24T06:36:12.980Z,67.58
2018-06-24T06:38:41.616Z,67.75
2018-06-24T06:41:10.129Z,67.42
2018-06-24T06:43:38.728Z,66.94
2018-06-24T06:46:10.984Z,66.78
2018-06-24T06:48:39.846Z,66.78
2018-06-24T06:51:09.925Z,66.46
2018-06-24T06:53:39.056Z,65.80
2018-06-24T06:56:08.593Z,65.12
2018-06-24T06:58:39.037Z,63.08
2018-06-24T07:01:07.769Z,63.87
2018-06-24T07:03:36.448Z,65.38
2018-06-24T07:06:05.193Z,65.56
2018-06-24T07:08:33.943Z,65.89
2018-06-24T07:11:03.748Z,65.43
2018-06-24T07:13:32.570Z,65.19
2018-06-24T07:16:01.273Z,65.40
2018-06-24T07:18:30.415Z,64.79
2018-06-24T07:20:59.045Z,65.06
2018-06-24T07:23:27.746Z,64.57
2018-06-24T07:25:56.475Z,64.94
2018-06-24T07:28:25.117Z,65.28
2018-06-24T07:30:53.784Z,65.01
2018-06-24T07:33:22.430Z,64.64
2018-06-24T07:35:50.948Z,64.98
2018-06-24T07:38:19.528Z,64.54
2018-06-24T07:40:48.115Z,63.18
2018-06-24T07:43:16.645Z,63.73
2018-06-24T07:45:45.237Z,63.95
2018-06-24T07:48:15.809Z,63.46
2018-06-24T07:50:44.465Z,63.85
2018-06-24T07:53:13.056Z,63.61
2018-06-24T07:55:41.598Z,63.66
2018-06-24T07:58:10.189Z,63.03
2018-06-24T08:00:38.827Z,63.74
2018-06-24T08:03:07.479Z,63.69
2018-06-24T08:05:36.007Z,64.00
2018-06-24T08:08:04.779Z,64.90
2018-06-24T08:10:33.366Z,64.17
2018-06-24T08:13:02.000Z,64.16
2018-06-24T08:15:31.341Z,63.38
2018-06-24T08:17:59.953Z,63.13
2018-06-24T08:20:28.675Z,62.46
2018-06-24T08:22:57.187Z,63.13
2018-06-24T08:25:25.783Z,62.33
2018-06-24T08:27:54.294Z,63.26
2018-06-24T08:30:22.961Z,62.69
2018-06-24T08:32:51.599Z,62.91
2018-06-24T08:35:20.113Z,63.03
2018-06-24T08:37:49.825Z,63.38
2018-06-24T08:40:18.460Z,63.46
2018-06-24T08:42:47.092Z,62.64
2018-06-24T08:45:15.777Z,61.91
2018-06-24T08:47:44.319Z,62.31
2018-06-24T08:50:13.016Z,62.18
2018-06-24T08:52:41.626Z,61.55
2018-06-24T08:55:10.200Z,61.28
2018-06-24T08:57:38.837Z,61.69
2018-06-24T09:00:07.887Z,61.50
2018-06-24T09:02:36.572Z,60.99
2018-06-24T09:05:05.208Z,61.90
2018-06-24T09:07:33.842Z,61.02
2018-06-24T09:10:02.480Z,61.57
2018-06-24T09:12:31.520Z,61.10
2018-06-24T09:15:00.203Z,61.52
2018-06-24T09:17:28.786Z,61.14
2018-06-24T09:19:57.676Z,61.39
2018-06-24T09:22:26.362Z,60.63
2018-06-24T09:24:54.951Z,60.31
2018-06-24T09:27:23.684Z,60.10
2018-06-24T09:29:53.957Z,59.83
2018-06-24T09:32:22.640Z,59.85
2018-06-24T09:34:51.280Z,60.51
2018-06-24T09:37:20.011Z,59.56
2018-06-24T09:39:48.626Z,60.64
2018-06-24T09:42:17.365Z,60.59
2018-06-24T09:44:45.964Z,60.53
2018-06-24T09:47:14.647Z,60.37
2018-06-24T09:49:43.436Z,60.43
2018-06-24T09:52:12.120Z,59.71
2018-06-24T09:54:47.070Z,59.52
2018-06-24T09:57:18.503Z,59.96
2018-06-24T09:59:47.099Z,58.94
2018-06-24T10:02:31.755Z,59.14
2018-06-24T10:05:16.873Z,58.66
2018-06-24T10:07:45.826Z,59.66
2018-06-24T10:10:15.116Z,59.27
2018-06-24T10:12:44.662Z,58.92
2018-06-24T10:15:13.473Z,58.79
2018-06-24T10:17:42.295Z,58.43
2018-06-24T10:20:10.827Z,59.07
2018-06-24T10:22:39.453Z,58.62
2018-06-24T10:25:08.146Z,59.10
2018-06-24T10:27:36.848Z,59.55
2018-06-24T10:30:06.372Z,58.86
2018-06-24T10:32:35.014Z,59.17
2018-06-24T10:35:03.702Z,59.12
2018-06-24T10:37:32.283Z,58.54
2018-06-24T10:40:00.866Z,57.86
2018-06-24T10:42:29.455Z,58.85
2018-06-24T10:44:57.975Z,58.20
2018-06-24T10:47:26.499Z,58.11
2018-06-24T10:49:55.150Z,57.81
2018-06-24T10:52:23.682Z,56.96
2018-06-24T10:54:52.356Z,57.37
2018-06-24T10:57:20.895Z,58.06
2018-06-24T10:59:49.529Z,57.88
2018-06-24T11:02:18.287Z,56.96
2018-06-24T11:04:46.811Z,56.73
2018-06-24T11:07:15.456Z,56.29
2018-06-24T11:09:44.169Z,56.30
2018-06-24T11:12:12.757Z,55.59
2018-06-24T11:14:41.403Z,55.93
2018-06-24T11:17:09.980Z,55.45
2018-06-24T11:19:38.570Z,56.57
2018-06-24T11:22:07.156Z,56.38
2018-06-24T11:24:35.768Z,56.09
2018-06-24T11:27:04.299Z,56.58
2018-06-24T11:29:32.845Z,56.99
2018-06-24T11:32:01.394Z,56.66
2018-06-24T11:34:29.994Z,54.99
2018-06-24T11:36:58.591Z,55.42
2018-06-24T11:39:27.145Z,54.94
2018-06-24T11:41:55.707Z,55.09
2018-06-24T11:44:24.248Z,53.16
2018-06-24T11:46:52.909Z,54.96
2018-06-24T11:49:21.472Z,55.01
2018-06-24T11:51:49.992Z,54.73
2018-06-24T11:54:18.660Z,53.88
2018-06-24T11:56:47.188Z,55.74
2018-06-24T11:59:15.822Z,54.75
2018-06-24T12:01:44.364Z,54.74
2018-06-24T12:04:13.193Z,54.17
2018-06-24T12:06:41.844Z,54.61
2018-06-24T12:09:12.483Z,55.67
2018-06-24T12:11:41.116Z,56.52
2018-06-24T12:14:09.827Z,55.51
2018-06-24T12:16:38.355Z,54.78
2018-06-24T12:19:07.003Z,55.79
2018-06-24T12:21:35.630Z,54.94
2018-06-24T12:24:04.319Z,55.39
2018-06-24T12:26:32.912Z,56.30
2018-06-24T12:29:01.440Z,55.94
2018-06-24T12:31:30.144Z,55.95
2018-06-24T12:33:58.933Z,55.50
2018-06-24T12:36:39.285Z,56.03
2018-06-24T12:39:11.790Z,56.47
2018-06-24T12:41:40.370Z,55.91
2018-06-24T12:44:09.876Z,56.14
2018-06-24T12:46:38.485Z,55.82
2018-06-24T12:49:07.752Z,55.69
2018-06-24T12:51:37.335Z,55.55
2018-06-24T12:54:06.256Z,53.60
2018-06-24T12:56:34.888Z,54.22
2018-06-24T12:59:03.808Z,52.97
2018-06-24T13:01:32.263Z,54.36
2018-06-24T13:04:00.873Z,52.95
2018-06-24T13:06:29.477Z,54.08
2018-06-24T13:08:58.073Z,53.72
2018-06-24T13:11:27.050Z,52.64
2018-06-24T13:13:55.837Z,53.07
2018-06-24T13:16:24.581Z,52.76
2018-06-24T13:18:53.310Z,52.49
2018-06-24T13:21:21.916Z,52.79
2018-06-24T13:23:50.579Z,53.46
2018-06-24T13:26:19.240Z,51.97
2018-06-24T13:28:47.792Z,52.22
2018-06-24T13:31:16.429Z,53.29
2018-06-24T13:33:45.002Z,53.34
2018-06-24T13:36:13.601Z,53.02
2018-06-24T13:38:42.178Z,51.66
2018-06-24T13:41:10.865Z,52.27
2018-06-24T13:43:39.548Z,51.29
2018-06-24T13:46:08.234Z,51.41
2018-06-24T13:48:36.926Z,50.89
2018-06-24T13:51:05.608Z,52.12
2018-06-24T13:53:34.290Z,52.24
2018-06-24T13:56:02.952Z,52.07
2018-06-24T13:58:31.597Z,52.54
2018-06-24T14:01:00.203Z,52.88
2018-06-24T14:03:28.932Z,52.05
2018-06-24T14:05:57.603Z,52.79
2018-06-24T14:08:26.304Z,52.80
2018-06-24T14:10:54.903Z,53.49
2018-06-24T14:13:23.493Z,53.43
2018-06-24T14:15:52.255Z,53.82
2018-06-24T14:18:20.900Z,54.44
2018-06-24T14:20:49.794Z,54.24
2018-06-24T14:23:18.870Z,54.33
2018-06-24T14:25:47.461Z,53.80
2018-06-24T14:28:16.607Z,54.35
2018-06-24T14:30:45.293Z,53.54
2018-06-24T14:33:13.971Z,53.70
2018-06-24T14:35:42.607Z,53.07
2018-06-24T14:38:11.324Z,53.92
2018-06-24T14:40:40.187Z,53.84
2018-06-24T14:43:08.861Z,54.21
2018-06-24T14:45:37.657Z,52.70
2018-06-24T14:48:06.519Z,53.21
2018-06-24T14:50:35.180Z,53.93
2018-06-24T14:53:06.036Z,53.21
2018-06-24T14:55:34.695Z,52.45
2018-06-24T14:58:03.404Z,53.63
2018-06-24T15:00:32.019Z,52.73
2018-06-24T15:03:00.645Z,53.02
2018-06-24T15:05:29.295Z,51.58
2018-06-24T15:07:57.940Z,51.72
2018-06-24T15:10:26.579Z,47.70
2018-06-24T15:12:55.253Z,48.05
2018-06-24T15:15:23.877Z,48.91
2018-06-24T15:17:52.662Z,47.55
2018-06-24T15:20:21.323Z,49.04
2018-06-24T15:22:50.037Z,46.91
2018-06-24T15:25:18.722Z,47.67
2018-06-24T15:27:47.542Z,49.71
2018-06-24T15:30:16.295Z,47.77
2018-06-24T15:32:44.948Z,47.88
2018-06-24T15:35:14.828Z,47.73
2018-06-24T15:37:43.447Z,46.54
2018-06-24T15:40:12.161Z,47.23
2018-06-24T15:42:40.819Z,46.94
2018-06-24T15:45:09.950Z,46.98
2018-06-24T15:47:38.772Z,47.85
2018-06-24T15:50:07.521Z,48.00
2018-06-24T15:52:36.613Z,45.85
2018-06-24T15:55:06.062Z,47.04
2018-06-24T15:57:34.763Z,47.52
2018-06-24T16:00:03.588Z,48.91
2018-06-24T16:02:32.184Z,49.44
2018-06-24T16:05:01.066Z,49.57
2018-06-24T16:07:29.849Z,49.54
2018-06-24T16:09:58.487Z,49.40
2018-06-24T16:12:27.107Z,48.43
2018-06-24T16:14:55.792Z,48.48
2018-06-24T16:17:24.488Z,49.34
2018-06-24T16:19:53.039Z,50.42
2018-06-24T16:22:21.627Z,50.41
2018-06-24T16:24:51.897Z,50.78
2018-06-24T16:27:20.616Z,50.24
2018-06-24T16:29:49.181Z,49.53
2018-06-24T16:32:17.829Z,51.09
2018-06-24T16:34:46.514Z,50.26
2018-06-24T16:37:15.379Z,50.35
2018-06-24T16:39:43.987Z,50.26
2018-06-24T16:42:12.688Z,51.53
2018-06-24T16:44:41.315Z,50.66
2018-06-24T16:47:10.003Z,50.61
2018-06-24T16:49:38.691Z,50.39
2018-06-24T16:52:07.284Z,50.31
2018-06-24T16:54:35.916Z,48.68
2018-06-24T16:57:04.581Z,49.75
2018-06-24T16:59:33.214Z,49.16
2018-06-24T17:02:01.771Z,48.21
2018-06-24T17:04:30.383Z,48.00
2018-06-24T17:06:59.018Z,47.49
2018-06-24T17:09:27.696Z,47.79
2018-06-24T17:11:56.265Z,48.54
2018-06-24T17:14:24.840Z,48.79
2018-06-24T17:16:53.548Z,48.56
2018-06-24T17:19:22.051Z,49.05
2018-06-24T17:21:50.694Z,48.80
2018-06-24T17:24:19.301Z,48.51
2018-06-24T17:26:47.872Z,48.35
2018-06-24T17:29:16.462Z,47.38
2018-06-24T17:31:45.024Z,46.88
2018-06-24T17:34:15.905Z,46.60
2018-06-24T17:36:44.528Z,46.14
2018-06-24T17:39:13.591Z,46.33
2018-06-24T17:41:44.285Z,47.61
2018-06-24T17:44:13.052Z,49.70
2018-06-24T17:46:41.580Z,49.73
2018-06-24T17:49:10.357Z,51.06
2018-06-24T17:51:39.124Z,52.63
2018-06-24T17:54:07.797Z,53.39
2018-06-24T17:56:36.348Z,53.29
2018-06-24T17:59:04.907Z,54.09
2018-06-24T18:01:33.535Z,54.06
2018-06-24T18:04:02.237Z,54.96
2018-06-24T18:06:30.837Z,55.97
2018-06-24T18:08:59.925Z,56.65
2018-06-24T18:11:28.483Z,57.42
2018-06-24T18:13:57.052Z,57.72
2018-06-24T18:16:25.639Z,57.27
2018-06-24T18:18:54.262Z,56.94
2018-06-24T18:21:22.846Z,57.17
2018-06-24T18:23:51.392Z,57.83
2018-06-24T18:26:19.959Z,57.73
2018-06-24T18:28:48.597Z,57.80
2018-06-24T18:31:17.383Z,57.62
2018-06-24T18:33:45.906Z,58.62
2018-06-24T18:36:14.447Z,57.88
2018-06-24T18:38:43.315Z,57.82
2018-06-24T18:41:11.839Z,57.77
2018-06-24T18:43:40.318Z,58.56
2018-06-24T18:46:09.190Z,60.08
2018-06-24T18:48:37.722Z,60.96
2018-06-24T18:51:06.477Z,61.53
2018-06-24T18:53:35.091Z,62.43
2018-06-24T18:56:03.761Z,62.44
2018-06-24T18:58:32.311Z,63.11
2018-06-24T19:01:01.811Z,62.68
2018-06-24T19:03:30.376Z,65.36
2018-06-24T19:06:00.207Z,64.21
2018-06-24T19:08:28.788Z,64.73
2018-06-24T19:10:57.346Z,66.87
2018-06-24T19:13:25.959Z,65.80
2018-06-24T19:15:54.643Z,66.43
2018-06-24T19:18:23.178Z,66.39
2018-06-24T19:20:51.804Z,68.01
2018-06-24T19:23:20.591Z,66.90
2018-06-24T19:25:49.281Z,68.28
2018-06-24T19:28:17.883Z,68.73
2018-06-24T19:30:46.443Z,67.47
2018-06-24T19:33:15.020Z,68.39
2018-06-24T19:35:43.715Z,67.30
2018-06-24T19:38:12.294Z,68.43
2018-06-24T19:40:40.884Z,70.22
2018-06-24T19:43:09.431Z,68.79
2018-06-24T19:45:37.936Z,70.20
2018-06-24T19:48:06.939Z,70.42
2018-06-24T19:50:35.462Z,70.91
2018-06-24T19:53:04.102Z,70.28
2018-06-24T19:55:32.792Z,71.21
2018-06-24T19:58:01.447Z,72.13
2018-06-24T20:00:29.973Z,70.85
2018-06-24T20:02:58.492Z,71.60
2018-06-24T20:05:27.023Z,73.17
2018-06-24T20:07:55.547Z,72.33
2018-06-24T20:10:24.383Z,72.37
2018-06-24T20:12:52.934Z,73.02
2018-06-24T20:15:21.463Z,73.06
2018-06-24T20:17:49.970Z,72.84
2018-06-24T20:20:18.514Z,73.75
2018-06-24T20:22:47.011Z,73.95
2018-06-24T20:25:15.599Z,72.49
2018-06-24T20:27:44.259Z,74.53
2018-06-24T20:30:12.903Z,74.05
2018-06-24T20:32:41.463Z,74.32
2018-06-24T20:35:10.060Z,73.11
2018-06-24T20:37:38.644Z,72.35
2018-06-24T20:40:07.227Z,71.92
2018-06-24T20:42:35.858Z,73.53
2018-06-24T20:45:04.436Z,72.92
2018-06-24T20:47:33.072Z,73.45
2018-06-24T20:50:01.655Z,72.10
2018-06-24T20:52:30.254Z,71.71
2018-06-24T20:54:58.915Z,72.50
2018-06-24T20:57:27.515Z,72.98
2018-06-24T20:59:56.056Z,72.31
2018-06-24T21:02:24.619Z,72.08
2018-06-24T21:04:53.411Z,72.67
2018-06-24T21:07:22.097Z,72.26
2018-06-24T21:09:50.607Z,71.59
2018-06-24T21:12:19.263Z,72.21
2018-06-24T21:14:47.845Z,72.60
2018-06-24T21:17:16.428Z,72.00
2018-06-24T21:19:45.095Z,71.73
2018-06-24T21:22:13.574Z,71.92
2018-06-24T21:24:42.142Z,71.55
2018-06-24T21:27:11.727Z,71.60
2018-06-24T21:29:40.982Z,71.52
2018-06-24T21:32:09.559Z,71.41
2018-06-24T21:34:38.054Z,71.59
2018-06-24T21:37:06.536Z,71.46
2018-06-24T21:39:35.019Z,71.54
2018-06-24T21:42:03.635Z,71.73
2018-06-24T21:44:32.373Z,72.10
2018-06-24T21:47:00.958Z,72.53
2018-06-24T21:49:29.504Z,72.41
2018-06-24T21:51:58.087Z,71.90
2018-06-24T21:54:26.706Z,72.12
2018-06-24T21:56:55.235Z,72.28
2018-06-24T21:59:23.873Z,72.37
2018-06-24T22:01:52.559Z,72.54
2018-06-24T22:04:21.087Z,73.01
2018-06-24T22:06:49.599Z,73.36
2018-06-24T22:09:18.204Z,73.83
2018-06-24T22:11:46.890Z,73.05
2018-06-24T22:14:15.522Z,74.42
2018-06-24T22:16:44.040Z,73.44
2018-06-24T22:19:12.585Z,73.79
2018-06-24T22:21:41.119Z,73.54
2018-06-24T22:24:09.806Z,73.95
2018-06-24T22:26:38.388Z,73.52
2018-06-24T22:29:07.074Z,74.48
2018-06-24T22:31:35.698Z,73.94
2018-06-24T22:34:04.300Z,75.78
2018-06-24T22:36:33.041Z,74.15
2018-06-24T22:39:01.715Z,74.59
2018-06-24T22:41:30.372Z,74.36
2018-06-24T22:43:58.966Z,74.25
2018-06-24T22:46:27.684Z,73.76
2018-06-24T22:48:56.356Z,74.26
2018-06-24T22:51:25.045Z,74.01
2018-06-24T22:53:53.666Z,74.03
2018-06-24T22:56:22.367Z,74.20
2018-06-24T22:59:02.597Z,74.35
2018-06-24T23:01:31.769Z,75.09
2018-06-24T23:04:00.424Z,74.87
2018-06-24T23:06:29.466Z,75.24
2018-06-24T23:08:58.750Z,74.90
2018-06-24T23:11:27.434Z,75.08
2018-06-24T23:13:56.119Z,75.85
2018-06-24T23:16:24.708Z,75.67
2018-06-24T23:18:53.298Z,76.29
2018-06-24T23:21:21.971Z,77.39
2018-06-24T23:23:50.558Z,76.03
2018-06-24T23:26:19.194Z,76.27
2018-06-24T23:28:48.024Z,75.89
2018-06-24T23:31:16.586Z,76.59
2018-06-24T23:33:45.166Z,76.94
2018-06-24T23:36:13.977Z,77.25
2018-06-24T23:38:42.628Z,76.51
2018-06-24T23:41:11.251Z,76.41
2018-06-24T23:43:40.136Z,76.65
2018-06-24T23:46:09.150Z,76.43
2018-06-24T23:48:37.886Z,76.85
2018-06-24T23:51:06.550Z,76.19
2018-06-24T23:53:35.186Z,75.91
2018-06-24T23:56:04.077Z,76.25
2018-06-24T23:58:32.667Z,76.60
